sensor_id;sensor_type;location;lat;lon;timestamp;pressure;altitude;pressure_sealevel;temperature;humidity
26635;BME280;14490;54.208;37.686;2022-09-03T00:01:41;99842.47;;;7.82;100.00
26635;BME280;14490;54.208;37.686;2022-09-03T00:04:16;99839.69;;;7.84;100.00
26635;BME280;14490;54.208;37.686;2022-09-03T00:06:54;99847.72;;;7.84;100.00
26635;BME280;14490;54.208;37.686;2022-09-03T00:09:30;99816.78;;;7.65;100.00
26635;BME280;14490;54.208;37.686;2022-09-03T00:12:02;99848.53;;;7.72;100.00
26635;BME280;14490;54.208;37.686;2022-09-03T00:14:38;99850.22;;;7.72;100.00
26635;BME280;14490;54.208;37.686;2022-09-03T00:17:12;99853.09;;;7.69;100.00
26635;BME280;14490;54.208;37.686;2022-09-03T00:19:50;99851.00;;;7.60;100.00
26635;BME280;14490;54.208;37.686;2022-09-03T00:22:23;99835.53;;;7.51;100.00
26635;BME280;14490;54.208;37.686;2022-09-03T00:24:56;99822.66;;;7.44;100.00
26635;BME280;14490;54.208;37.686;2022-09-03T00:27:27;99715.25;;;6.79;100.00
26635;BME280;14490;54.208;37.686;2022-09-03T00:29:59;99860.50;;;7.52;100.00
26635;BME280;14490;54.208;37.686;2022-09-03T00:32:36;99792.63;;;7.25;100.00
26635;BME280;14490;54.208;37.686;2022-09-03T00:35:15;99868.63;;;7.64;100.00
26635;BME280;14490;54.208;37.686;2022-09-03T00:37:46;99798.69;;;7.14;100.00
26635;BME280;14490;54.208;37.686;2022-09-03T00:43:28;99879.53;;;7.47;100.00
26635;BME280;14490;54.208;37.686;2022-09-03T00:46:09;99880.50;;;7.46;100.00
26635;BME280;14490;54.208;37.686;2022-09-03T00:48:57;99879.06;;;7.41;100.00
26635;BME280;14490;54.208;37.686;2022-09-03T00:51:37;99878.09;;;7.42;100.00
26635;BME280;14490;54.208;37.686;2022-09-03T00:54:18;99732.75;;;6.56;100.00
26635;BME280;14490;54.208;37.686;2022-09-03T00:57:15;99887.28;;;7.38;100.00
26635;BME280;14490;54.208;37.686;2022-09-03T00:59:55;99888.16;;;7.38;100.00
26635;BME280;14490;54.208;37.686;2022-09-03T01:02:38;99882.81;;;7.38;100.00
26635;BME280;14490;54.208;37.686;2022-09-03T01:05:22;99846.00;;;7.13;100.00
26635;BME280;14490;54.208;37.686;2022-09-03T01:08:10;99884.69;;;7.36;100.00
26635;BME280;14490;54.208;37.686;2022-09-03T01:10:53;99820.19;;;6.98;100.00
26635;BME280;14490;54.208;37.686;2022-09-03T01:13:32;99863.75;;;7.14;100.00
26635;BME280;14490;54.208;37.686;2022-09-03T01:16:09;99815.09;;;6.80;100.00
26635;BME280;14490;54.208;37.686;2022-09-03T01:18:50;99844.34;;;6.97;100.00
26635;BME280;14490;54.208;37.686;2022-09-03T01:21:49;99767.97;;;6.49;100.00
26635;BME280;14490;54.208;37.686;2022-09-03T01:24:51;99903.06;;;7.28;100.00
26635;BME280;14490;54.208;37.686;2022-09-03T01:27:41;99885.25;;;7.27;100.00
26635;BME280;14490;54.208;37.686;2022-09-03T01:30:16;99888.72;;;7.29;100.00
26635;BME280;14490;54.208;37.686;2022-09-03T01:32:47;99887.75;;;7.30;100.00
26635;BME280;14490;54.208;37.686;2022-09-03T01:35:25;99887.94;;;7.27;100.00
26635;BME280;14490;54.208;37.686;2022-09-03T01:38:04;99903.06;;;7.28;100.00
26635;BME280;14490;54.208;37.686;2022-09-03T01:40:44;99868.44;;;7.11;100.00
26635;BME280;14490;54.208;37.686;2022-09-03T01:43:30;99868.16;;;7.15;100.00
26635;BME280;14490;54.208;37.686;2022-09-03T01:46:08;99888.72;;;7.29;100.00
26635;BME280;14490;54.208;37.686;2022-09-03T01:48:43;99892.34;;;7.28;100.00
26635;BME280;14490;54.208;37.686;2022-09-03T01:51:19;99888.06;;;7.26;100.00
26635;BME280;14490;54.208;37.686;2022-09-03T01:57:23;99901.03;;;7.18;100.00
26635;BME280;14490;54.208;37.686;2022-09-03T02:00:03;99905.63;;;7.15;100.00
26635;BME280;14490;54.208;37.686;2022-09-03T02:02:34;99901.03;;;7.18;100.00
26635;BME280;14490;54.208;37.686;2022-09-03T02:05:05;99902.94;;;7.15;100.00
26635;BME280;14490;54.208;37.686;2022-09-03T02:07:35;99812.78;;;6.59;100.00
26635;BME280;14490;54.208;37.686;2022-09-03T02:10:08;99903.25;;;7.11;100.00
26635;BME280;14490;54.208;37.686;2022-09-03T02:12:38;99921.28;;;7.07;100.00
26635;BME280;14490;54.208;37.686;2022-09-03T02:15:12;99868.59;;;6.80;100.00
26635;BME280;14490;54.208;37.686;2022-09-03T02:17:44;99896.53;;;6.90;100.00
26635;BME280;14490;54.208;37.686;2022-09-03T02:20:18;99915.34;;;7.02;100.00
26635;BME280;14490;54.208;37.686;2022-09-03T02:22:48;99861.69;;;6.76;100.00
26635;BME280;14490;54.208;37.686;2022-09-03T02:25:16;99914.22;;;7.06;100.00
26635;BME280;14490;54.208;37.686;2022-09-03T02:27:46;99892.78;;;6.92;100.00
26635;BME280;14490;54.208;37.686;2022-09-03T02:30:14;99678.78;;;5.62;100.00
26635;BME280;14490;54.208;37.686;2022-09-03T02:32:44;99927.50;;;7.08;100.00
26635;BME280;14490;54.208;37.686;2022-09-03T02:35:12;99924.06;;;7.06;100.00
26635;BME280;14490;54.208;37.686;2022-09-03T02:37:40;99765.88;;;6.10;100.00
26635;BME280;14490;54.208;37.686;2022-09-03T02:40:09;99619.44;;;5.27;100.00
26635;BME280;14490;54.208;37.686;2022-09-03T02:42:37;99615.84;;;5.28;100.00
26635;BME280;14490;54.208;37.686;2022-09-03T02:45:12;99936.00;;;7.14;100.00
26635;BME280;14490;54.208;37.686;2022-09-03T02:47:51;99919.00;;;7.01;100.00
26635;BME280;14490;54.208;37.686;2022-09-03T02:50:22;99944.72;;;7.18;100.00
26635;BME280;14490;54.208;37.686;2022-09-03T02:52:50;99854.69;;;6.59;100.00
26635;BME280;14490;54.208;37.686;2022-09-03T02:55:19;99950.94;;;7.19;100.00
26635;BME280;14490;54.208;37.686;2022-09-03T02:57:46;99953.91;;;7.14;100.00
26635;BME280;14490;54.208;37.686;2022-09-03T03:00:14;99878.78;;;6.73;100.00
26635;BME280;14490;54.208;37.686;2022-09-03T03:02:43;99899.28;;;6.88;100.00
26635;BME280;14490;54.208;37.686;2022-09-03T03:05:19;99817.69;;;6.37;100.00
26635;BME280;14490;54.208;37.686;2022-09-03T03:07:51;99954.38;;;7.21;100.00
26635;BME280;14490;54.208;37.686;2022-09-03T03:10:23;99924.41;;;7.00;100.00
26635;BME280;14490;54.208;37.686;2022-09-03T03:12:50;99804.44;;;6.20;100.00
26635;BME280;14490;54.208;37.686;2022-09-03T03:15:18;99843.03;;;6.30;100.00
26635;BME280;14490;54.208;37.686;2022-09-03T03:17:46;99953.47;;;6.92;100.00
26635;BME280;14490;54.208;37.686;2022-09-03T03:20:15;99962.97;;;6.82;100.00
26635;BME280;14490;54.208;37.686;2022-09-03T03:22:43;99975.47;;;6.81;100.00
26635;BME280;14490;54.208;37.686;2022-09-03T03:25:10;99958.94;;;6.75;100.00
26635;BME280;14490;54.208;37.686;2022-09-03T03:27:37;99979.16;;;6.94;100.00
26635;BME280;14490;54.208;37.686;2022-09-03T03:30:07;99955.75;;;6.84;100.00
26635;BME280;14490;54.208;37.686;2022-09-03T03:32:37;99955.38;;;6.90;100.00
26635;BME280;14490;54.208;37.686;2022-09-03T03:35:05;99980.84;;;7.11;100.00
26635;BME280;14490;54.208;37.686;2022-09-03T03:37:37;99988.88;;;7.11;100.00
26635;BME280;14490;54.208;37.686;2022-09-03T03:40:06;99991.56;;;7.11;100.00
26635;BME280;14490;54.208;37.686;2022-09-03T03:42:35;99991.44;;;7.12;100.00
26635;BME280;14490;54.208;37.686;2022-09-03T03:45:03;99930.38;;;6.75;100.00
26635;BME280;14490;54.208;37.686;2022-09-03T03:47:32;99949.03;;;6.91;100.00
26635;BME280;14490;54.208;37.686;2022-09-03T03:50:00;99990.00;;;7.07;100.00
26635;BME280;14490;54.208;37.686;2022-09-03T03:52:28;99945.03;;;6.84;100.00
26635;BME280;14490;54.208;37.686;2022-09-03T03:54:57;99992.13;;;7.16;100.00
26635;BME280;14490;54.208;37.686;2022-09-03T03:57:25;99946.19;;;6.94;100.00
26635;BME280;14490;54.208;37.686;2022-09-03T03:59:55;99919.22;;;6.83;100.00
26635;BME280;14490;54.208;37.686;2022-09-03T04:02:23;99958.66;;;7.09;100.00
26635;BME280;14490;54.208;37.686;2022-09-03T04:04:50;100018.09;;;7.44;100.00
26635;BME280;14490;54.208;37.686;2022-09-03T04:07:18;100022.22;;;7.49;100.00
26635;BME280;14490;54.208;37.686;2022-09-03T04:09:45;99998.38;;;7.31;100.00
26635;BME280;14490;54.208;37.686;2022-09-03T04:12:15;99966.34;;;7.29;100.00
26635;BME280;14490;54.208;37.686;2022-09-03T04:14:43;100012.38;;;7.64;100.00
26635;BME280;14490;54.208;37.686;2022-09-03T04:17:11;99934.38;;;7.12;100.00
26635;BME280;14490;54.208;37.686;2022-09-03T04:19:39;99799.72;;;6.39;100.00
26635;BME280;14490;54.208;37.686;2022-09-03T04:22:07;99913.75;;;7.14;100.00
26635;BME280;14490;54.208;37.686;2022-09-03T04:24:35;99973.47;;;7.44;100.00
26635;BME280;14490;54.208;37.686;2022-09-03T04:27:03;99886.59;;;7.06;100.00
26635;BME280;14490;54.208;37.686;2022-09-03T04:29:32;100023.50;;;7.86;100.00
26635;BME280;14490;54.208;37.686;2022-09-03T04:32:00;100017.66;;;7.94;100.00
26635;BME280;14490;54.208;37.686;2022-09-03T04:34:46;99991.63;;;7.82;100.00
26635;BME280;14490;54.208;37.686;2022-09-03T04:37:14;99992.41;;;7.84;100.00
26635;BME280;14490;54.208;37.686;2022-09-03T04:39:44;99977.66;;;7.91;100.00
26635;BME280;14490;54.208;37.686;2022-09-03T04:42:12;100031.06;;;8.22;100.00
26635;BME280;14490;54.208;37.686;2022-09-03T04:44:41;100033.38;;;8.28;100.00
26635;BME280;14490;54.208;37.686;2022-09-03T04:47:09;99912.06;;;7.55;100.00
26635;BME280;14490;54.208;37.686;2022-09-03T04:49:37;99990.88;;;8.08;100.00
26635;BME280;14490;54.208;37.686;2022-09-03T04:52:05;99912.81;;;7.72;100.00
26635;BME280;14490;54.208;37.686;2022-09-03T04:54:34;100034.59;;;8.51;100.00
26635;BME280;14490;54.208;37.686;2022-09-03T04:57:03;100034.09;;;8.58;100.00
26635;BME280;14490;54.208;37.686;2022-09-03T04:59:30;99938.56;;;8.15;100.00
26635;BME280;14490;54.208;37.686;2022-09-03T05:01:59;100034.41;;;8.81;100.00
26635;BME280;14490;54.208;37.686;2022-09-03T05:04:27;100000.81;;;8.75;100.00
26635;BME280;14490;54.208;37.686;2022-09-03T05:06:55;100044.59;;;9.02;100.00
26635;BME280;14490;54.208;37.686;2022-09-03T05:09:23;100047.53;;;9.12;100.00
26635;BME280;14490;54.208;37.686;2022-09-03T05:11:51;100022.91;;;9.05;100.00
26635;BME280;14490;54.208;37.686;2022-09-03T05:14:19;99942.47;;;8.64;100.00
26635;BME280;14490;54.208;37.686;2022-09-03T05:16:47;100033.28;;;9.24;100.00
26635;BME280;14490;54.208;37.686;2022-09-03T05:19:17;99961.88;;;8.95;100.00
26635;BME280;14490;54.208;37.686;2022-09-03T05:21:44;99742.59;;;7.66;100.00
26635;BME280;14490;54.208;37.686;2022-09-03T05:24:12;100045.66;;;9.52;100.00
26635;BME280;14490;54.208;37.686;2022-09-03T05:26:40;100041.72;;;9.57;100.00
26635;BME280;14490;54.208;37.686;2022-09-03T05:29:08;100057.31;;;9.77;100.00
26635;BME280;14490;54.208;37.686;2022-09-03T05:31:37;100008.28;;;9.61;100.00
26635;BME280;14490;54.208;37.686;2022-09-03T05:34:06;100059.25;;;10.01;100.00
26635;BME280;14490;54.208;37.686;2022-09-03T05:36:37;100033.66;;;9.82;100.00
26635;BME280;14490;54.208;37.686;2022-09-03T05:39:05;99929.28;;;9.26;100.00
26635;BME280;14490;54.208;37.686;2022-09-03T05:41:33;100009.16;;;9.87;100.00
26635;BME280;14490;54.208;37.686;2022-09-03T05:44:02;99989.47;;;9.74;100.00
26635;BME280;14490;54.208;37.686;2022-09-03T05:46:31;99884.28;;;9.17;100.00
26635;BME280;14490;54.208;37.686;2022-09-03T05:49:02;100061.75;;;10.29;100.00
26635;BME280;14490;54.208;37.686;2022-09-03T05:51:31;99980.22;;;9.91;100.00
26635;BME280;14490;54.208;37.686;2022-09-03T05:54:01;100054.16;;;10.47;100.00
26635;BME280;14490;54.208;37.686;2022-09-03T05:56:31;100064.28;;;10.56;100.00
26635;BME280;14490;54.208;37.686;2022-09-03T05:59:02;100063.50;;;10.66;100.00
26635;BME280;14490;54.208;37.686;2022-09-03T06:01:36;100073.47;;;10.77;100.00
26635;BME280;14490;54.208;37.686;2022-09-03T06:04:07;100060.19;;;10.86;100.00
26635;BME280;14490;54.208;37.686;2022-09-03T06:06:36;100064.16;;;10.93;100.00
26635;BME280;14490;54.208;37.686;2022-09-03T06:09:08;100065.19;;;11.04;100.00
26635;BME280;14490;54.208;37.686;2022-09-03T06:11:39;100006.31;;;10.75;100.00
26635;BME280;14490;54.208;37.686;2022-09-03T06:14:08;100055.69;;;11.11;100.00
26635;BME280;14490;54.208;37.686;2022-09-03T06:16:39;100067.75;;;11.29;100.00
26635;BME280;14490;54.208;37.686;2022-09-03T06:19:08;99915.53;;;10.54;100.00
26635;BME280;14490;54.208;37.686;2022-09-03T06:21:40;100061.47;;;11.52;100.00
26635;BME280;14490;54.208;37.686;2022-09-03T06:24:12;99990.41;;;11.07;100.00
26635;BME280;14490;54.208;37.686;2022-09-03T06:26:41;99945.78;;;10.92;100.00
26635;BME280;14490;54.208;37.686;2022-09-03T06:29:11;99755.44;;;9.77;98.59
26635;BME280;14490;54.208;37.686;2022-09-03T06:31:39;99771.03;;;9.96;97.09
26635;BME280;14490;54.208;37.686;2022-09-03T06:34:08;99877.31;;;10.72;97.50
26635;BME280;14490;54.208;37.686;2022-09-03T06:36:35;99900.88;;;10.92;97.55
26635;BME280;14490;54.208;37.686;2022-09-03T06:39:03;100060.88;;;11.83;93.16
26635;BME280;14490;54.208;37.686;2022-09-03T06:41:32;99826.34;;;10.58;93.61
26635;BME280;14490;54.208;37.686;2022-09-03T06:44:01;99966.66;;;11.47;93.13
26635;BME280;14490;54.208;37.686;2022-09-03T06:46:31;100057.25;;;12.07;92.87
26635;BME280;14490;54.208;37.686;2022-09-03T06:49:03;100038.81;;;11.89;91.39
26635;BME280;14490;54.208;37.686;2022-09-03T06:51:34;100049.50;;;12.13;92.15
26635;BME280;14490;54.208;37.686;2022-09-03T06:54:06;100058.22;;;12.17;91.26
26635;BME280;14490;54.208;37.686;2022-09-03T06:56:56;99936.66;;;11.51;89.43
26635;BME280;14490;54.208;37.686;2022-09-03T06:59:26;100064.13;;;12.33;89.13
26635;BME280;14490;54.208;37.686;2022-09-03T07:01:54;100058.00;;;12.31;87.05
26635;BME280;14490;54.208;37.686;2022-09-03T07:04:28;100007.44;;;12.11;86.99
26635;BME280;14490;54.208;37.686;2022-09-03T07:06:57;99791.69;;;10.88;85.81
26635;BME280;14490;54.208;37.686;2022-09-03T07:09:29;100073.06;;;12.55;82.44
26635;BME280;14490;54.208;37.686;2022-09-03T07:12:06;99970.91;;;12.07;82.21
26635;BME280;14490;54.208;37.686;2022-09-03T07:14:45;99800.66;;;11.22;81.05
26635;BME280;14490;54.208;37.686;2022-09-03T07:17:16;100012.94;;;12.53;80.32
26635;BME280;14490;54.208;37.686;2022-09-03T07:19:46;99990.28;;;12.34;79.06
26635;BME280;14490;54.208;37.686;2022-09-03T07:22:25;99816.44;;;11.49;78.38
26635;BME280;14490;54.208;37.686;2022-09-03T07:25:28;99819.25;;;11.59;77.27
26635;BME280;14490;54.208;37.686;2022-09-03T07:28:11;99918.53;;;12.20;75.94
26635;BME280;14490;54.208;37.686;2022-09-03T07:30:42;100075.34;;;13.16;75.04
26635;BME280;14490;54.208;37.686;2022-09-03T07:33:10;99955.91;;;12.36;73.36
26635;BME280;14490;54.208;37.686;2022-09-03T07:35:40;100017.94;;;12.69;73.84
26635;BME280;14490;54.208;37.686;2022-09-03T07:38:08;99900.78;;;12.07;74.17
26635;BME280;14490;54.208;37.686;2022-09-03T07:40:39;99963.28;;;12.34;71.83
26635;BME280;14490;54.208;37.686;2022-09-03T07:43:10;99973.09;;;12.46;71.91
26635;BME280;14490;54.208;37.686;2022-09-03T07:45:38;99954.69;;;12.29;70.32
26635;BME280;14490;54.208;37.686;2022-09-03T07:48:06;100060.97;;;12.93;70.13
26635;BME280;14490;54.208;37.686;2022-09-03T07:50:39;100022.59;;;12.78;69.71
26635;BME280;14490;54.208;37.686;2022-09-03T07:53:09;100033.09;;;13.03;70.22
26635;BME280;14490;54.208;37.686;2022-09-03T07:55:37;99909.56;;;12.31;69.67
26635;BME280;14490;54.208;37.686;2022-09-03T08:00:36;99903.22;;;12.52;69.97
26635;BME280;14490;54.208;37.686;2022-09-03T08:03:06;99894.56;;;12.38;68.57
26635;BME280;14490;54.208;37.686;2022-09-03T08:05:36;100057.31;;;13.37;69.07
26635;BME280;14490;54.208;37.686;2022-09-03T08:08:05;100018.59;;;13.16;69.33
26635;BME280;14490;54.208;37.686;2022-09-03T08:10:34;99973.47;;;12.84;69.38
26635;BME280;14490;54.208;37.686;2022-09-03T08:13:03;100050.97;;;13.27;69.66
26635;BME280;14490;54.208;37.686;2022-09-03T08:15:32;99943.97;;;12.49;69.19
26635;BME280;14490;54.208;37.686;2022-09-03T08:18:03;100048.56;;;13.12;69.51
26635;BME280;14490;54.208;37.686;2022-09-03T08:20:31;100032.84;;;13.06;69.50
26635;BME280;14490;54.208;37.686;2022-09-03T08:23:02;99997.22;;;13.01;70.03
26635;BME280;14490;54.208;37.686;2022-09-03T08:25:30;99851.03;;;12.31;69.97
26635;BME280;14490;54.208;37.686;2022-09-03T08:28:03;99956.47;;;12.93;68.96
26635;BME280;14490;54.208;37.686;2022-09-03T08:30:31;100039.06;;;13.50;69.17
26635;BME280;14490;54.208;37.686;2022-09-03T08:33:03;100007.91;;;13.35;69.54
26635;BME280;14490;54.208;37.686;2022-09-03T08:35:31;99863.47;;;12.54;69.26
26635;BME280;14490;54.208;37.686;2022-09-03T08:37:59;99949.97;;;12.96;69.27
26635;BME280;14490;54.208;37.686;2022-09-03T08:40:36;99911.25;;;13.06;69.37
26635;BME280;14490;54.208;37.686;2022-09-03T08:43:10;100030.59;;;14.05;68.52
26635;BME280;14490;54.208;37.686;2022-09-03T08:45:42;99890.56;;;13.37;67.79
26635;BME280;14490;54.208;37.686;2022-09-03T08:48:14;99996.50;;;14.23;67.10
26635;BME280;14490;54.208;37.686;2022-09-03T08:50:48;100017.16;;;14.45;67.08
26635;BME280;14490;54.208;37.686;2022-09-03T08:53:37;100027.03;;;14.56;66.57
26635;BME280;14490;54.208;37.686;2022-09-03T08:56:10;99982.19;;;14.33;64.62
26635;BME280;14490;54.208;37.686;2022-09-03T08:58:40;99893.09;;;13.90;64.78
26635;BME280;14490;54.208;37.686;2022-09-03T09:01:13;100017.41;;;14.82;64.44
26635;BME280;14490;54.208;37.686;2022-09-03T09:04:31;99992.31;;;14.99;62.76
26635;BME280;14490;54.208;37.686;2022-09-03T09:07:40;100009.72;;;15.35;62.14
26635;BME280;14490;54.208;37.686;2022-09-03T09:10:25;99948.38;;;15.15;61.59
26635;BME280;14490;54.208;37.686;2022-09-03T09:13:09;100000.91;;;15.52;61.05
26635;BME280;14490;54.208;37.686;2022-09-03T09:15:49;100003.16;;;15.85;60.51
26635;BME280;14490;54.208;37.686;2022-09-03T09:18:35;100006.50;;;16.16;59.16
26635;BME280;14490;54.208;37.686;2022-09-03T09:21:21;99987.50;;;16.44;58.09
26635;BME280;14490;54.208;37.686;2022-09-03T09:23:57;99771.13;;;15.25;56.91
26635;BME280;14490;54.208;37.686;2022-09-03T09:26:29;99807.84;;;15.57;56.39
26635;BME280;14490;54.208;37.686;2022-09-03T09:29:01;99999.09;;;16.73;55.95
26635;BME280;14490;54.208;37.686;2022-09-03T09:31:32;99872.63;;;16.06;56.00
26635;BME280;14490;54.208;37.686;2022-09-03T09:34:03;99917.97;;;16.23;55.45
26635;BME280;14490;54.208;37.686;2022-09-03T09:39:15;100003.28;;;16.30;51.19
26635;BME280;14490;54.208;37.686;2022-09-03T09:41:56;99842.06;;;15.21;52.83
26635;BME280;14490;54.208;37.686;2022-09-03T09:44:25;100003.81;;;15.97;51.50
26635;BME280;14490;54.208;37.686;2022-09-03T09:47:03;99866.47;;;15.11;51.80
26635;BME280;14490;54.208;37.686;2022-09-03T09:49:52;99908.69;;;15.23;50.83
26635;BME280;14490;54.208;37.686;2022-09-03T09:52:28;99883.19;;;14.78;49.59
26635;BME280;14490;54.208;37.686;2022-09-03T09:55:09;100002.03;;;15.40;49.21
26635;BME280;14490;54.208;37.686;2022-09-03T09:57:42;99994.06;;;15.58;49.54
26635;BME280;14490;54.208;37.686;2022-09-03T10:00:16;99992.91;;;15.70;49.28
26635;BME280;14490;54.208;37.686;2022-09-03T10:02:48;99794.63;;;14.69;49.51
26635;BME280;14490;54.208;37.686;2022-09-03T10:05:24;99913.81;;;15.46;49.11
26635;BME280;14490;54.208;37.686;2022-09-03T10:07:56;99797.16;;;14.90;49.09
26635;BME280;14490;54.208;37.686;2022-09-03T10:10:29;99841.06;;;15.31;49.18
26635;BME280;14490;54.208;37.686;2022-09-03T10:13:06;99903.88;;;15.83;49.16
26635;BME280;14490;54.208;37.686;2022-09-03T10:15:41;99905.88;;;15.81;49.18
26635;BME280;14490;54.208;37.686;2022-09-03T10:18:21;99970.25;;;16.35;48.95
26635;BME280;14490;54.208;37.686;2022-09-03T10:21:03;99998.78;;;16.76;48.42
26635;BME280;14490;54.208;37.686;2022-09-03T10:23:47;99996.00;;;16.68;46.90
26635;BME280;14490;54.208;37.686;2022-09-03T10:26:23;99884.25;;;15.99;47.00
26635;BME280;14490;54.208;37.686;2022-09-03T10:28:56;99877.41;;;15.95;46.69
26635;BME280;14490;54.208;37.686;2022-09-03T10:31:38;99891.03;;;16.12;46.75
26635;BME280;14490;54.208;37.686;2022-09-03T10:34:15;99946.16;;;16.77;47.01
26635;BME280;14490;54.208;37.686;2022-09-03T10:36:54;99966.28;;;17.02;46.47
26635;BME280;14490;54.208;37.686;2022-09-03T10:39:31;99925.50;;;16.84;46.36
26635;BME280;14490;54.208;37.686;2022-09-03T10:42:18;99798.09;;;15.73;46.31
26635;BME280;14490;54.208;37.686;2022-09-03T10:44:59;99815.34;;;15.72;45.75
26635;BME280;14490;54.208;37.686;2022-09-03T10:47:43;99896.75;;;16.36;45.98
26635;BME280;14490;54.208;37.686;2022-09-03T10:50:41;99905.09;;;16.53;45.84
26635;BME280;14490;54.208;37.686;2022-09-03T10:53:24;99886.78;;;16.27;45.29
26635;BME280;14490;54.208;37.686;2022-09-03T10:56:00;99847.56;;;16.12;45.51
26635;BME280;14490;54.208;37.686;2022-09-03T10:58:44;99982.44;;;17.03;45.09
26635;BME280;14490;54.208;37.686;2022-09-03T11:01:25;99944.00;;;16.98;44.90
26635;BME280;14490;54.208;37.686;2022-09-03T11:04:10;99936.44;;;16.92;44.85
26635;BME280;14490;54.208;37.686;2022-09-03T11:06:50;99905.81;;;16.72;45.12
26635;BME280;14490;54.208;37.686;2022-09-03T11:09:23;99820.97;;;16.16;44.46
26635;BME280;14490;54.208;37.686;2022-09-03T11:11:58;99740.03;;;15.57;44.81
26635;BME280;14490;54.208;37.686;2022-09-03T11:14:34;99833.31;;;16.10;44.75
26635;BME280;14490;54.208;37.686;2022-09-03T11:17:10;99929.22;;;16.65;45.51
26635;BME280;14490;54.208;37.686;2022-09-03T11:19:45;99945.59;;;16.91;45.42
26635;BME280;14490;54.208;37.686;2022-09-03T11:22:17;99976.94;;;16.95;44.94
26635;BME280;14490;54.208;37.686;2022-09-03T11:24:52;99899.47;;;16.36;45.06
26635;BME280;14490;54.208;37.686;2022-09-03T11:27:32;99945.44;;;16.48;45.18
26635;BME280;14490;54.208;37.686;2022-09-03T11:30:12;99944.44;;;16.49;45.57
26635;BME280;14490;54.208;37.686;2022-09-03T11:32:46;99954.97;;;16.61;45.60
26635;BME280;14490;54.208;37.686;2022-09-03T11:35:26;99938.31;;;16.47;45.91
26635;BME280;14490;54.208;37.686;2022-09-03T11:37:59;99902.56;;;16.41;45.98
26635;BME280;14490;54.208;37.686;2022-09-03T11:40:32;99942.50;;;16.68;46.15
26635;BME280;14490;54.208;37.686;2022-09-03T11:43:12;99940.09;;;16.83;46.03
26635;BME280;14490;54.208;37.686;2022-09-03T11:46:03;99925.50;;;16.84;44.81
26635;BME280;14490;54.208;37.686;2022-09-03T11:48:39;99918.72;;;16.70;44.40
26635;BME280;14490;54.208;37.686;2022-09-03T11:51:29;99814.06;;;16.21;44.11
26635;BME280;14490;54.208;37.686;2022-09-03T11:56:32;99908.38;;;17.09;44.51
26635;BME280;14490;54.208;37.686;2022-09-03T11:59:19;99874.38;;;16.87;44.04
26635;BME280;14490;54.208;37.686;2022-09-03T12:01:56;99909.16;;;17.19;44.40
26635;BME280;14490;54.208;37.686;2022-09-03T12:04:33;99916.13;;;17.39;44.70
26635;BME280;14490;54.208;37.686;2022-09-03T12:07:26;99883.56;;;17.47;44.31
26635;BME280;14490;54.208;37.686;2022-09-03T12:10:22;99757.50;;;16.70;44.30
26635;BME280;14490;54.208;37.686;2022-09-03T12:13:16;99905.44;;;17.64;44.02
26635;BME280;14490;54.208;37.686;2022-09-03T12:16:12;99772.03;;;16.61;43.78
26635;BME280;14490;54.208;37.686;2022-09-03T12:19:21;99924.22;;;17.31;44.30
26635;BME280;14490;54.208;37.686;2022-09-03T12:21:59;99827.19;;;16.71;44.53
26635;BME280;14490;54.208;37.686;2022-09-03T12:24:28;99729.59;;;16.07;44.10
26635;BME280;14490;54.208;37.686;2022-09-03T12:27:22;99657.09;;;15.54;43.82
26635;BME280;14490;54.208;37.686;2022-09-03T12:30:16;99867.22;;;16.69;43.17
26635;BME280;14490;54.208;37.686;2022-09-03T12:33:10;99640.28;;;15.41;43.72
26635;BME280;14490;54.208;37.686;2022-09-03T12:35:57;99909.09;;;17.11;43.39
26635;BME280;14490;54.208;37.686;2022-09-03T12:38:26;99900.78;;;16.95;43.52
26635;BME280;14490;54.208;37.686;2022-09-03T12:40:56;99901.25;;;17.08;43.33
26635;BME280;14490;54.208;37.686;2022-09-03T12:43:27;99877.84;;;17.15;43.54
26635;BME280;14490;54.208;37.686;2022-09-03T12:45:58;99711.41;;;16.60;43.60
26635;BME280;14490;54.208;37.686;2022-09-03T12:48:31;99887.09;;;17.99;43.08
26635;BME280;14490;54.208;37.686;2022-09-03T12:51:04;99675.16;;;17.03;42.60
26635;BME280;14490;54.208;37.686;2022-09-03T12:53:37;99857.47;;;18.38;42.45
26635;BME280;14490;54.208;37.686;2022-09-03T12:56:14;99879.69;;;18.68;41.88
26635;BME280;14490;54.208;37.686;2022-09-03T12:58:48;99740.13;;;17.74;41.75
26635;BME280;14490;54.208;37.686;2022-09-03T13:01:21;99883.00;;;18.45;41.32
26635;BME280;14490;54.208;37.686;2022-09-03T13:03:55;99610.28;;;16.74;41.31
26635;BME280;14490;54.208;37.686;2022-09-03T13:06:29;99870.59;;;18.01;41.21
26635;BME280;14490;54.208;37.686;2022-09-03T13:09:17;99869.41;;;18.03;41.95
26635;BME280;14490;54.208;37.686;2022-09-03T13:11:55;99708.66;;;17.04;42.14
26635;BME280;14490;54.208;37.686;2022-09-03T13:14:25;99873.69;;;18.06;42.26
26635;BME280;14490;54.208;37.686;2022-09-03T13:17:09;99768.97;;;17.33;42.17
26635;BME280;14490;54.208;37.686;2022-09-03T13:20:04;99830.28;;;17.71;42.41
26635;BME280;14490;54.208;37.686;2022-09-03T13:22:55;99870.28;;;18.04;42.00
26635;BME280;14490;54.208;37.686;2022-09-03T13:25:35;99873.28;;;18.27;41.81
26635;BME280;14490;54.208;37.686;2022-09-03T13:28:14;99844.50;;;18.32;41.99
26635;BME280;14490;54.208;37.686;2022-09-03T13:30:56;99863.41;;;18.34;41.71
26635;BME280;14490;54.208;37.686;2022-09-03T13:33:31;99769.06;;;17.75;41.50
26635;BME280;14490;54.208;37.686;2022-09-03T13:36:09;99846.81;;;18.11;42.10
26635;BME280;14490;54.208;37.686;2022-09-03T13:38:49;99857.53;;;18.13;41.98
26635;BME280;14490;54.208;37.686;2022-09-03T13:41:36;99769.59;;;17.44;41.90